sensor_id;sensor_type;location;lat;lon;timestamp;P1;durP1;ratioP1;P2;durP2;ratioP2
25917;SDS011;13899;51.174;4.456;2022-08-20T00:00:20;10.37;;;9.50;;
25917;SDS011;13899;51.174;4.456;2022-08-20T00:02:49;10.80;;;9.85;;
25917;SDS011;13899;51.174;4.456;2022-08-20T00:05:23;11.07;;;9.82;;
25917;SDS011;13899;51.174;4.456;2022-08-20T00:07:53;10.65;;;9.55;;
25917;SDS011;13899;51.174;4.456;2022-08-20T00:10:19;12.03;;;10.77;;
25917;SDS011;13899;51.174;4.456;2022-08-20T00:12:45;11.82;;;10.75;;
25917;SDS011;13899;51.174;4.456;2022-08-20T00:15:13;11.48;;;10.27;;
25917;SDS011;13899;51.174;4.456;2022-08-20T00:17:40;13.38;;;11.18;;
25917;SDS011;13899;51.174;4.456;2022-08-20T00:20:08;12.48;;;10.73;;
25917;SDS011;13899;51.174;4.456;2022-08-20T00:22:35;12.90;;;10.60;;
25917;SDS011;13899;51.174;4.456;2022-08-20T00:25:05;11.40;;;10.20;;
25917;SDS011;13899;51.174;4.456;2022-08-20T00:27:32;11.32;;;10.00;;
25917;SDS011;13899;51.174;4.456;2022-08-20T00:29:58;13.50;;;10.60;;
25917;SDS011;13899;51.174;4.456;2022-08-20T00:32:24;16.08;;;9.43;;
25917;SDS011;13899;51.174;4.456;2022-08-20T00:34:49;10.27;;;8.90;;
25917;SDS011;13899;51.174;4.456;2022-08-20T00:37:15;14.30;;;10.03;;
25917;SDS011;13899;51.174;4.456;2022-08-20T00:39:41;12.27;;;9.53;;
25917;SDS011;13899;51.174;4.456;2022-08-20T00:42:06;13.30;;;10.00;;
25917;SDS011;13899;51.174;4.456;2022-08-20T00:44:32;12.30;;;10.90;;
25917;SDS011;13899;51.174;4.456;2022-08-20T00:46:58;11.32;;;10.35;;
25917;SDS011;13899;51.174;4.456;2022-08-20T00:49:26;12.60;;;9.27;;
25917;SDS011;13899;51.174;4.456;2022-08-20T00:51:56;11.77;;;10.57;;
25917;SDS011;13899;51.174;4.456;2022-08-20T00:54:59;11.38;;;10.30;;
25917;SDS011;13899;51.174;4.456;2022-08-20T00:57:29;12.57;;;10.93;;
25917;SDS011;13899;51.174;4.456;2022-08-20T01:00:12;12.73;;;10.15;;
25917;SDS011;13899;51.174;4.456;2022-08-20T01:02:43;13.95;;;10.32;;
25917;SDS011;13899;51.174;4.456;2022-08-20T01:05:11;15.27;;;9.82;;
25917;SDS011;13899;51.174;4.456;2022-08-20T01:07:39;14.13;;;9.48;;
25917;SDS011;13899;51.174;4.456;2022-08-20T01:12:41;9.70;;;8.52;;
25917;SDS011;13899;51.174;4.456;2022-08-20T01:15:10;15.88;;;8.38;;
25917;SDS011;13899;51.174;4.456;2022-08-20T01:17:40;9.27;;;7.68;;
25917;SDS011;13899;51.174;4.456;2022-08-20T01:20:22;14.73;;;9.00;;
25917;SDS011;13899;51.174;4.456;2022-08-20T01:23:09;13.35;;;9.10;;
25917;SDS011;13899;51.174;4.456;2022-08-20T01:26:14;11.60;;;9.52;;
25917;SDS011;13899;51.174;4.456;2022-08-20T01:31:20;12.90;;;9.85;;
25917;SDS011;13899;51.174;4.456;2022-08-20T01:33:49;13.43;;;11.13;;
25917;SDS011;13899;51.174;4.456;2022-08-20T01:36:18;16.98;;;12.57;;
25917;SDS011;13899;51.174;4.456;2022-08-20T01:38:48;15.40;;;11.38;;
25917;SDS011;13899;51.174;4.456;2022-08-20T01:43:44;20.02;;;12.77;;
25917;SDS011;13899;51.174;4.456;2022-08-20T01:46:11;17.63;;;12.43;;
25917;SDS011;13899;51.174;4.456;2022-08-20T01:48:38;15.90;;;12.57;;
25917;SDS011;13899;51.174;4.456;2022-08-20T01:51:07;23.58;;;12.43;;
25917;SDS011;13899;51.174;4.456;2022-08-20T01:53:45;18.02;;;11.35;;
25917;SDS011;13899;51.174;4.456;2022-08-20T01:58:48;20.17;;;12.88;;
25917;SDS011;13899;51.174;4.456;2022-08-20T02:03:57;20.58;;;11.40;;
25917;SDS011;13899;51.174;4.456;2022-08-20T02:06:24;19.60;;;13.23;;
25917;SDS011;13899;51.174;4.456;2022-08-20T02:08:54;18.23;;;11.55;;
25917;SDS011;13899;51.174;4.456;2022-08-20T02:11:22;19.80;;;10.43;;
25917;SDS011;13899;51.174;4.456;2022-08-20T02:13:49;15.02;;;9.85;;
25917;SDS011;13899;51.174;4.456;2022-08-20T02:16:28;12.73;;;9.85;;
25917;SDS011;13899;51.174;4.456;2022-08-20T02:18:58;16.63;;;9.88;;
25917;SDS011;13899;51.174;4.456;2022-08-20T02:21:27;15.35;;;9.07;;
25917;SDS011;13899;51.174;4.456;2022-08-20T02:23:56;21.98;;;9.77;;
25917;SDS011;13899;51.174;4.456;2022-08-20T02:26:22;21.70;;;9.80;;
25917;SDS011;13899;51.174;4.456;2022-08-20T02:28:49;21.02;;;11.93;;
25917;SDS011;13899;51.174;4.456;2022-08-20T02:31:17;21.02;;;12.85;;
25917;SDS011;13899;51.174;4.456;2022-08-20T02:33:45;24.50;;;12.68;;
25917;SDS011;13899;51.174;4.456;2022-08-20T02:36:12;22.20;;;11.77;;
25917;SDS011;13899;51.174;4.456;2022-08-20T02:38:39;20.77;;;11.55;;
25917;SDS011;13899;51.174;4.456;2022-08-20T02:41:06;23.55;;;11.13;;
25917;SDS011;13899;51.174;4.456;2022-08-20T02:43:32;17.08;;;10.55;;
25917;SDS011;13899;51.174;4.456;2022-08-20T02:45:58;20.23;;;10.05;;
25917;SDS011;13899;51.174;4.456;2022-08-20T02:48:24;18.42;;;10.73;;
25917;SDS011;13899;51.174;4.456;2022-08-20T02:50:53;12.32;;;10.00;;
25917;SDS011;13899;51.174;4.456;2022-08-20T02:53:26;21.75;;;10.55;;
25917;SDS011;13899;51.174;4.456;2022-08-20T02:55:53;25.38;;;11.15;;
25917;SDS011;13899;51.174;4.456;2022-08-20T02:58:19;20.98;;;11.32;;
25917;SDS011;13899;51.174;4.456;2022-08-20T03:00:46;24.13;;;11.30;;
25917;SDS011;13899;51.174;4.456;2022-08-20T03:03:13;19.05;;;12.60;;
25917;SDS011;13899;51.174;4.456;2022-08-20T03:05:41;21.70;;;12.10;;
25917;SDS011;13899;51.174;4.456;2022-08-20T03:08:10;17.67;;;11.65;;
25917;SDS011;13899;51.174;4.456;2022-08-20T03:10:37;21.92;;;12.23;;
25917;SDS011;13899;51.174;4.456;2022-08-20T03:13:05;12.52;;;10.48;;
25917;SDS011;13899;51.174;4.456;2022-08-20T03:15:36;17.17;;;10.25;;
25917;SDS011;13899;51.174;4.456;2022-08-20T03:18:02;27.08;;;12.18;;
25917;SDS011;13899;51.174;4.456;2022-08-20T03:20:28;18.00;;;12.30;;
25917;SDS011;13899;51.174;4.456;2022-08-20T03:22:54;21.50;;;10.48;;
25917;SDS011;13899;51.174;4.456;2022-08-20T03:25:20;22.00;;;11.67;;
25917;SDS011;13899;51.174;4.456;2022-08-20T03:27:45;15.95;;;11.10;;
25917;SDS011;13899;51.174;4.456;2022-08-20T03:30:12;15.43;;;10.30;;
25917;SDS011;13899;51.174;4.456;2022-08-20T03:32:39;22.02;;;12.20;;
25917;SDS011;13899;51.174;4.456;2022-08-20T03:35:06;18.05;;;12.80;;
25917;SDS011;13899;51.174;4.456;2022-08-20T03:37:34;21.77;;;12.45;;
25917;SDS011;13899;51.174;4.456;2022-08-20T03:44:52;17.80;;;11.00;;
25917;SDS011;13899;51.174;4.456;2022-08-20T03:47:18;19.60;;;11.93;;
25917;SDS011;13899;51.174;4.456;2022-08-20T03:49:44;14.85;;;11.07;;
25917;SDS011;13899;51.174;4.456;2022-08-20T03:52:10;13.80;;;9.95;;
25917;SDS011;13899;51.174;4.456;2022-08-20T03:54:36;17.42;;;11.43;;
25917;SDS011;13899;51.174;4.456;2022-08-20T03:57:02;15.63;;;11.05;;
25917;SDS011;13899;51.174;4.456;2022-08-20T03:59:29;26.13;;;12.15;;
25917;SDS011;13899;51.174;4.456;2022-08-20T04:01:57;20.83;;;11.32;;
25917;SDS011;13899;51.174;4.456;2022-08-20T04:04:23;16.80;;;10.38;;
25917;SDS011;13899;51.174;4.456;2022-08-20T04:06:50;16.98;;;11.00;;
25917;SDS011;13899;51.174;4.456;2022-08-20T04:09:15;21.48;;;11.27;;
25917;SDS011;13899;51.174;4.456;2022-08-20T04:11:41;14.93;;;9.18;;
25917;SDS011;13899;51.174;4.456;2022-08-20T04:14:08;14.13;;;9.75;;
25917;SDS011;13899;51.174;4.456;2022-08-20T04:16:35;14.02;;;9.32;;
25917;SDS011;13899;51.174;4.456;2022-08-20T04:19:02;16.85;;;9.77;;
25917;SDS011;13899;51.174;4.456;2022-08-20T04:21:30;14.00;;;9.18;;
25917;SDS011;13899;51.174;4.456;2022-08-20T04:23:56;16.10;;;9.80;;
25917;SDS011;13899;51.174;4.456;2022-08-20T04:26:22;14.60;;;9.87;;
25917;SDS011;13899;51.174;4.456;2022-08-20T04:28:47;16.15;;;8.55;;
25917;SDS011;13899;51.174;4.456;2022-08-20T04:31:19;19.25;;;9.05;;
25917;SDS011;13899;51.174;4.456;2022-08-20T04:33:48;22.00;;;9.07;;
25917;SDS011;13899;51.174;4.456;2022-08-20T04:36:14;12.43;;;9.02;;
25917;SDS011;13899;51.174;4.456;2022-08-20T04:38:40;19.30;;;9.98;;
25917;SDS011;13899;51.174;4.456;2022-08-20T04:41:05;17.95;;;9.90;;
25917;SDS011;13899;51.174;4.456;2022-08-20T04:43:35;23.67;;;11.75;;
25917;SDS011;13899;51.174;4.456;2022-08-20T04:46:03;17.63;;;11.77;;
25917;SDS011;13899;51.174;4.456;2022-08-20T04:48:33;17.45;;;11.73;;
25917;SDS011;13899;51.174;4.456;2022-08-20T04:51:01;17.33;;;10.23;;
25917;SDS011;13899;51.174;4.456;2022-08-20T04:53:27;23.20;;;10.65;;
25917;SDS011;13899;51.174;4.456;2022-08-20T04:55:53;24.35;;;11.02;;
25917;SDS011;13899;51.174;4.456;2022-08-20T04:58:22;13.95;;;10.07;;
25917;SDS011;13899;51.174;4.456;2022-08-20T05:00:52;20.65;;;10.43;;
25917;SDS011;13899;51.174;4.456;2022-08-20T05:03:20;14.65;;;9.95;;
25917;SDS011;13899;51.174;4.456;2022-08-20T05:05:46;23.95;;;10.68;;
25917;SDS011;13899;51.174;4.456;2022-08-20T05:08:12;24.33;;;10.68;;
25917;SDS011;13899;51.174;4.456;2022-08-20T05:10:39;14.95;;;9.73;;
25917;SDS011;13899;51.174;4.456;2022-08-20T05:13:06;20.93;;;10.07;;
25917;SDS011;13899;51.174;4.456;2022-08-20T05:15:33;18.95;;;10.95;;
25917;SDS011;13899;51.174;4.456;2022-08-20T05:20:27;17.30;;;11.30;;
25917;SDS011;13899;51.174;4.456;2022-08-20T05:22:55;17.20;;;11.73;;
25917;SDS011;13899;51.174;4.456;2022-08-20T05:25:24;22.85;;;11.43;;
25917;SDS011;13899;51.174;4.456;2022-08-20T05:28:01;19.13;;;10.75;;
25917;SDS011;13899;51.174;4.456;2022-08-20T05:30:33;18.10;;;10.60;;
25917;SDS011;13899;51.174;4.456;2022-08-20T05:33:01;24.75;;;11.82;;
25917;SDS011;13899;51.174;4.456;2022-08-20T05:35:31;18.40;;;11.27;;
25917;SDS011;13899;51.174;4.456;2022-08-20T05:37:59;23.65;;;12.32;;
25917;SDS011;13899;51.174;4.456;2022-08-20T05:40:27;18.70;;;11.93;;
25917;SDS011;13899;51.174;4.456;2022-08-20T05:42:53;17.88;;;11.73;;
25917;SDS011;13899;51.174;4.456;2022-08-20T05:45:19;16.73;;;11.63;;
25917;SDS011;13899;51.174;4.456;2022-08-20T05:47:45;19.75;;;12.82;;
25917;SDS011;13899;51.174;4.456;2022-08-20T05:50:13;12.68;;;10.75;;
25917;SDS011;13899;51.174;4.456;2022-08-20T05:52:40;19.08;;;11.52;;
25917;SDS011;13899;51.174;4.456;2022-08-20T05:55:07;13.97;;;11.97;;
25917;SDS011;13899;51.174;4.456;2022-08-20T05:57:34;20.35;;;11.70;;
25917;SDS011;13899;51.174;4.456;2022-08-20T06:00:01;24.33;;;12.45;;
25917;SDS011;13899;51.174;4.456;2022-08-20T06:02:32;21.83;;;11.43;;
25917;SDS011;13899;51.174;4.456;2022-08-20T06:05:16;14.35;;;11.32;;
25917;SDS011;13899;51.174;4.456;2022-08-20T06:07:43;31.77;;;14.00;;
25917;SDS011;13899;51.174;4.456;2022-08-20T06:10:11;25.90;;;14.07;;
25917;SDS011;13899;51.174;4.456;2022-08-20T06:12:37;22.10;;;14.30;;
25917;SDS011;13899;51.174;4.456;2022-08-20T06:15:04;22.63;;;14.88;;
25917;SDS011;13899;51.174;4.456;2022-08-20T06:17:31;24.05;;;15.00;;
25917;SDS011;13899;51.174;4.456;2022-08-20T06:20:01;25.50;;;14.13;;
25917;SDS011;13899;51.174;4.456;2022-08-20T06:22:33;20.48;;;14.18;;
25917;SDS011;13899;51.174;4.456;2022-08-20T06:25:02;26.13;;;13.48;;
25917;SDS011;13899;51.174;4.456;2022-08-20T06:27:28;23.05;;;14.13;;
25917;SDS011;13899;51.174;4.456;2022-08-20T06:29:54;28.33;;;13.73;;
25917;SDS011;13899;51.174;4.456;2022-08-20T06:32:20;25.67;;;13.88;;
25917;SDS011;13899;51.174;4.456;2022-08-20T06:34:48;27.80;;;13.40;;
25917;SDS011;13899;51.174;4.456;2022-08-20T06:37:19;21.52;;;13.57;;
25917;SDS011;13899;51.174;4.456;2022-08-20T06:39:47;24.25;;;13.77;;
25917;SDS011;13899;51.174;4.456;2022-08-20T06:42:13;27.98;;;16.35;;
25917;SDS011;13899;51.174;4.456;2022-08-20T06:44:39;26.05;;;15.73;;
25917;SDS011;13899;51.174;4.456;2022-08-20T06:47:05;26.48;;;15.00;;
25917;SDS011;13899;51.174;4.456;2022-08-20T06:49:35;25.67;;;15.13;;
25917;SDS011;13899;51.174;4.456;2022-08-20T06:52:02;22.45;;;14.65;;
25917;SDS011;13899;51.174;4.456;2022-08-20T06:54:28;26.38;;;15.73;;
25917;SDS011;13899;51.174;4.456;2022-08-20T06:56:54;26.70;;;14.65;;
25917;SDS011;13899;51.174;4.456;2022-08-20T06:59:20;17.65;;;13.82;;
25917;SDS011;13899;51.174;4.456;2022-08-20T07:01:46;16.80;;;14.68;;
25917;SDS011;13899;51.174;4.456;2022-08-20T07:04:13;20.88;;;15.23;;
25917;SDS011;13899;51.174;4.456;2022-08-20T07:06:40;22.80;;;14.18;;
25917;SDS011;13899;51.174;4.456;2022-08-20T07:09:06;25.87;;;12.67;;
25917;SDS011;13899;51.174;4.456;2022-08-20T07:11:32;20.87;;;13.77;;
25917;SDS011;13899;51.174;4.456;2022-08-20T07:16:27;22.23;;;13.20;;
25917;SDS011;13899;51.174;4.456;2022-08-20T07:18:52;23.02;;;13.80;;
25917;SDS011;13899;51.174;4.456;2022-08-20T07:21:18;17.35;;;12.40;;
25917;SDS011;13899;51.174;4.456;2022-08-20T07:23:44;28.17;;;13.80;;
25917;SDS011;13899;51.174;4.456;2022-08-20T07:26:12;19.15;;;13.40;;
25917;SDS011;13899;51.174;4.456;2022-08-20T07:28:37;24.17;;;13.83;;
25917;SDS011;13899;51.174;4.456;2022-08-20T07:31:03;29.75;;;14.18;;
25917;SDS011;13899;51.174;4.456;2022-08-20T07:33:47;23.77;;;12.45;;
25917;SDS011;13899;51.174;4.456;2022-08-20T07:36:13;19.53;;;11.87;;
25917;SDS011;13899;51.174;4.456;2022-08-20T07:38:39;16.43;;;12.27;;
25917;SDS011;13899;51.174;4.456;2022-08-20T07:41:05;21.33;;;11.70;;
25917;SDS011;13899;51.174;4.456;2022-08-20T07:43:37;20.52;;;11.27;;
25917;SDS011;13899;51.174;4.456;2022-08-20T07:46:03;18.58;;;11.10;;
25917;SDS011;13899;51.174;4.456;2022-08-20T07:48:33;13.82;;;10.48;;
25917;SDS011;13899;51.174;4.456;2022-08-20T07:51:01;16.10;;;9.98;;
25917;SDS011;13899;51.174;4.456;2022-08-20T07:53:29;17.80;;;10.07;;
25917;SDS011;13899;51.174;4.456;2022-08-20T07:55:57;15.63;;;9.07;;
25917;SDS011;13899;51.174;4.456;2022-08-20T07:58:24;14.48;;;8.90;;
25917;SDS011;13899;51.174;4.456;2022-08-20T08:00:50;24.83;;;8.73;;
25917;SDS011;13899;51.174;4.456;2022-08-20T08:03:16;11.77;;;9.40;;
25917;SDS011;13899;51.174;4.456;2022-08-20T08:05:44;9.73;;;8.70;;
25917;SDS011;13899;51.174;4.456;2022-08-20T08:08:13;13.82;;;9.18;;
25917;SDS011;13899;51.174;4.456;2022-08-20T08:10:45;19.92;;;11.02;;
25917;SDS011;13899;51.174;4.456;2022-08-20T08:13:13;11.57;;;8.52;;
25917;SDS011;13899;51.174;4.456;2022-08-20T08:15:40;12.55;;;8.57;;
25917;SDS011;13899;51.174;4.456;2022-08-20T08:18:13;12.00;;;8.48;;
25917;SDS011;13899;51.174;4.456;2022-08-20T08:20:45;13.10;;;7.70;;
25917;SDS011;13899;51.174;4.456;2022-08-20T08:23:12;9.98;;;7.70;;
25917;SDS011;13899;51.174;4.456;2022-08-20T08:25:38;11.20;;;6.80;;
25917;SDS011;13899;51.174;4.456;2022-08-20T08:28:07;9.70;;;5.72;;
25917;SDS011;13899;51.174;4.456;2022-08-20T08:30:36;11.43;;;7.07;;
25917;SDS011;13899;51.174;4.456;2022-08-20T08:33:04;11.32;;;6.82;;
25917;SDS011;13899;51.174;4.456;2022-08-20T08:35:48;7.63;;;5.13;;
25917;SDS011;13899;51.174;4.456;2022-08-20T08:38:14;10.37;;;5.80;;
25917;SDS011;13899;51.174;4.456;2022-08-20T08:40:40;12.05;;;6.60;;
25917;SDS011;13899;51.174;4.456;2022-08-20T08:43:07;9.90;;;5.00;;
25917;SDS011;13899;51.174;4.456;2022-08-20T08:45:38;12.68;;;5.43;;
25917;SDS011;13899;51.174;4.456;2022-08-20T08:48:08;8.60;;;4.03;;
25917;SDS011;13899;51.174;4.456;2022-08-20T08:50:36;9.43;;;5.05;;
25917;SDS011;13899;51.174;4.456;2022-08-20T08:53:03;9.70;;;4.32;;
25917;SDS011;13899;51.174;4.456;2022-08-20T08:55:30;10.30;;;4.88;;
25917;SDS011;13899;51.174;4.456;2022-08-20T08:57:56;7.97;;;3.80;;
25917;SDS011;13899;51.174;4.456;2022-08-20T09:00:26;12.98;;;5.20;;
25917;SDS011;13899;51.174;4.456;2022-08-20T09:05:23;6.82;;;5.70;;
25917;SDS011;13899;51.174;4.456;2022-08-20T09:07:55;5.43;;;2.47;;
25917;SDS011;13899;51.174;4.456;2022-08-20T09:10:22;4.57;;;2.50;;
25917;SDS011;13899;51.174;4.456;2022-08-20T09:12:48;7.73;;;2.80;;
25917;SDS011;13899;51.174;4.456;2022-08-20T09:15:14;4.95;;;2.20;;
25917;SDS011;13899;51.174;4.456;2022-08-20T09:17:40;9.27;;;2.77;;
25917;SDS011;13899;51.174;4.456;2022-08-20T09:20:06;5.27;;;2.20;;
25917;SDS011;13899;51.174;4.456;2022-08-20T09:22:34;5.95;;;1.52;;
25917;SDS011;13899;51.174;4.456;2022-08-20T09:25:00;4.17;;;1.40;;
25917;SDS011;13899;51.174;4.456;2022-08-20T09:27:27;7.85;;;1.60;;
25917;SDS011;13899;51.174;4.456;2022-08-20T09:29:53;6.30;;;5.15;;
25917;SDS011;13899;51.174;4.456;2022-08-20T09:32:21;6.23;;;3.77;;
25917;SDS011;13899;51.174;4.456;2022-08-20T09:35:05;5.90;;;1.38;;
25917;SDS011;13899;51.174;4.456;2022-08-20T09:37:32;3.00;;;1.30;;
25917;SDS011;13899;51.174;4.456;2022-08-20T09:39:58;9.23;;;1.60;;
25917;SDS011;13899;51.174;4.456;2022-08-20T09:42:26;11.93;;;10.73;;
25917;SDS011;13899;51.174;4.456;2022-08-20T09:44:53;4.47;;;2.53;;
25917;SDS011;13899;51.174;4.456;2022-08-20T09:47:19;4.72;;;1.75;;
25917;SDS011;13899;51.174;4.456;2022-08-20T09:49:45;4.88;;;1.35;;
25917;SDS011;13899;51.174;4.456;2022-08-20T09:55:23;7.30;;;5.05;;
25917;SDS011;13899;51.174;4.456;2022-08-20T10:00:56;3.60;;;1.20;;
25917;SDS011;13899;51.174;4.456;2022-08-20T10:03:26;6.05;;;1.70;;
25917;SDS011;13899;51.174;4.456;2022-08-20T10:05:52;12.17;;;11.30;;
25917;SDS011;13899;51.174;4.456;2022-08-20T10:08:17;4.27;;;1.50;;
25917;SDS011;13899;51.174;4.456;2022-08-20T10:10:43;6.50;;;1.20;;
25917;SDS011;13899;51.174;4.456;2022-08-20T10:15:35;9.38;;;8.68;;
25917;SDS011;13899;51.174;4.456;2022-08-20T10:18:02;5.73;;;5.20;;
25917;SDS011;13899;51.174;4.456;2022-08-20T10:20:29;5.25;;;2.65;;
25917;SDS011;13899;51.174;4.456;2022-08-20T10:22:58;8.30;;;1.93;;
25917;SDS011;13899;51.174;4.456;2022-08-20T10:25:32;4.93;;;1.80;;
25917;SDS011;13899;51.174;4.456;2022-08-20T10:27:58;7.40;;;1.80;;
25917;SDS011;13899;51.174;4.456;2022-08-20T10:30:25;10.60;;;1.60;;
25917;SDS011;13899;51.174;4.456;2022-08-20T10:33:10;7.95;;;2.22;;
25917;SDS011;13899;51.174;4.456;2022-08-20T10:35:43;5.07;;;2.15;;
25917;SDS011;13899;51.174;4.456;2022-08-20T10:38:10;4.15;;;1.58;;
25917;SDS011;13899;51.174;4.456;2022-08-20T10:44:07;5.22;;;2.17;;
25917;SDS011;13899;51.174;4.456;2022-08-20T10:46:57;7.18;;;6.50;;
25917;SDS011;13899;51.174;4.456;2022-08-20T10:53:25;7.43;;;6.00;;
25917;SDS011;13899;51.174;4.456;2022-08-20T10:55:54;6.47;;;4.50;;
25917;SDS011;13899;51.174;4.456;2022-08-20T10:58:24;4.77;;;4.27;;
25917;SDS011;13899;51.174;4.456;2022-08-20T11:00:59;4.75;;;2.28;;
25917;SDS011;13899;51.174;4.456;2022-08-20T11:03:41;5.05;;;3.53;;
25917;SDS011;13899;51.174;4.456;2022-08-20T11:06:47;6.80;;;3.28;;
25917;SDS011;13899;51.174;4.456;2022-08-20T11:09:21;5.93;;;5.43;;
25917;SDS011;13899;51.174;4.456;2022-08-20T11:11:47;10.27;;;6.38;;
25917;SDS011;13899;51.174;4.456;2022-08-20T11:14:12;6.40;;;3.73;;
25917;SDS011;13899;51.174;4.456;2022-08-20T11:16:38;7.27;;;6.60;;
25917;SDS011;13899;51.174;4.456;2022-08-20T11:19:03;9.43;;;7.00;;
25917;SDS011;13899;51.174;4.456;2022-08-20T11:21:29;4.90;;;1.47;;
25917;SDS011;13899;51.174;4.456;2022-08-20T11:23:55;5.03;;;1.90;;
25917;SDS011;13899;51.174;4.456;2022-08-20T11:26:21;3.75;;;2.00;;
25917;SDS011;13899;51.174;4.456;2022-08-20T11:28:48;10.00;;;9.10;;
25917;SDS011;13899;51.174;4.456;2022-08-20T11:31:15;13.00;;;12.23;;
25917;SDS011;13899;51.174;4.456;2022-08-20T11:33:42;5.82;;;2.67;;
25917;SDS011;13899;51.174;4.456;2022-08-20T11:36:07;5.37;;;1.87;;
25917;SDS011;13899;51.174;4.456;2022-08-20T11:38:42;5.60;;;2.10;;
25917;SDS011;13899;51.174;4.456;2022-08-20T11:41:08;5.22;;;1.95;;
25917;SDS011;13899;51.174;4.456;2022-08-20T11:43:34;6.13;;;2.63;;
25917;SDS011;13899;51.174;4.456;2022-08-20T11:45:59;5.37;;;1.70;;
25917;SDS011;13899;51.174;4.456;2022-08-20T11:48:25;6.47;;;3.27;;
25917;SDS011;13899;51.174;4.456;2022-08-20T11:50:51;7.03;;;6.00;;
25917;SDS011;13899;51.174;4.456;2022-08-20T11:53:16;5.60;;;2.73;;
25917;SDS011;13899;51.174;4.456;2022-08-20T11:55:42;11.55;;;10.82;;
25917;SDS011;13899;51.174;4.456;2022-08-20T11:58:08;8.30;;;7.32;;
25917;SDS011;13899;51.174;4.456;2022-08-20T12:00:34;4.03;;;3.67;;
25917;SDS011;13899;51.174;4.456;2022-08-20T12:05:28;2.85;;;1.60;;
25917;SDS011;13899;51.174;4.456;2022-08-20T12:07:54;5.13;;;1.98;;
25917;SDS011;13899;51.174;4.456;2022-08-20T12:10:20;3.90;;;1.83;;
25917;SDS011;13899;51.174;4.456;2022-08-20T12:12:48;4.50;;;1.80;;
25917;SDS011;13899;51.174;4.456;2022-08-20T12:15:13;5.73;;;1.80;;
25917;SDS011;13899;51.174;4.456;2022-08-20T12:17:39;5.03;;;2.33;;
25917;SDS011;13899;51.174;4.456;2022-08-20T12:20:08;7.07;;;6.53;;
25917;SDS011;13899;51.174;4.456;2022-08-20T12:22:36;3.08;;;2.55;;
25917;SDS011;13899;51.174;4.456;2022-08-20T12:25:03;5.85;;;5.40;;
25917;SDS011;13899;51.174;4.456;2022-08-20T12:27:30;4.35;;;2.85;;
25917;SDS011;13899;51.174;4.456;2022-08-20T12:29:59;5.75;;;4.97;;
25917;SDS011;13899;51.174;4.456;2022-08-20T12:32:28;4.70;;;1.50;;
25917;SDS011;13899;51.174;4.456;2022-08-20T12:34:55;3.55;;;1.30;;
25917;SDS011;13899;51.174;4.456;2022-08-20T12:37:22;3.13;;;1.65;;
25917;SDS011;13899;51.174;4.456;2022-08-20T12:39:51;3.78;;;1.30;;
25917;SDS011;13899;51.174;4.456;2022-08-20T12:42:19;5.15;;;3.95;;
25917;SDS011;13899;51.174;4.456;2022-08-20T12:44:46;7.40;;;4.28;;
25917;SDS011;13899;51.174;4.456;2022-08-20T12:49:42;3.50;;;1.52;;
25917;SDS011;13899;51.174;4.456;2022-08-20T12:52:10;3.83;;;2.33;;
25917;SDS011;13899;51.174;4.456;2022-08-20T12:57:02;5.70;;;5.20;;
25917;SDS011;13899;51.174;4.456;2022-08-20T12:59:28;7.53;;;5.53;;
25917;SDS011;13899;51.174;4.456;2022-08-20T13:01:54;4.67;;;4.30;;
25917;SDS011;13899;51.174;4.456;2022-08-20T13:04:21;5.40;;;2.67;;
25917;SDS011;13899;51.174;4.456;2022-08-20T13:06:46;3.80;;;1.58;;
25917;SDS011;13899;51.174;4.456;2022-08-20T13:09:13;2.97;;;1.40;;
25917;SDS011;13899;51.174;4.456;2022-08-20T13:11:39;4.40;;;1.40;;
25917;SDS011;13899;51.174;4.456;2022-08-20T13:14:05;3.63;;;1.70;;
25917;SDS011;13899;51.174;4.456;2022-08-20T13:16:31;5.78;;;1.60;;
25917;SDS011;13899;51.174;4.456;2022-08-20T13:18:58;4.45;;;1.88;;
25917;SDS011;13899;51.174;4.456;2022-08-20T13:21:23;2.43;;;1.40;;
25917;SDS011;13899;51.174;4.456;2022-08-20T13:26:15;4.45;;;1.20;;
25917;SDS011;13899;51.174;4.456;2022-08-20T13:28:41;3.57;;;1.60;;
25917;SDS011;13899;51.174;4.456;2022-08-20T13:31:07;3.43;;;1.63;;
25917;SDS011;13899;51.174;4.456;2022-08-20T13:33:32;4.87;;;1.53;;
25917;SDS011;13899;51.174;4.456;2022-08-20T13:35:58;6.33;;;1.83;;
25917;SDS011;13899;51.174;4.456;2022-08-20T13:38:24;4.05;;;1.70;;
25917;SDS011;13899;51.174;4.456;2022-08-20T13:40:50;4.13;;;2.22;;
25917;SDS011;13899;51.174;4.456;2022-08-20T13:43:15;3.97;;;1.60;;
25917;SDS011;13899;51.174;4.456;2022-08-20T13:45:41;5.40;;;4.17;;
25917;SDS011;13899;51.174;4.456;2022-08-20T13:48:07;4.43;;;2.70;;
25917;SDS011;13899;51.174;4.456;2022-08-20T13:50:33;4.35;;;1.75;;
25917;SDS011;13899;51.174;4.456;2022-08-20T13:52:59;4.53;;;1.70;;
25917;SDS011;13899;51.174;4.456;2022-08-20T13:55:26;3.23;;;1.67;;
25917;SDS011;13899;51.174;4.456;2022-08-20T13:57:52;4.38;;;1.80;;
25917;SDS011;13899;51.174;4.456;2022-08-20T14:00:20;3.60;;;1.55;;
25917;SDS011;13899;51.174;4.456;2022-08-20T14:02:54;3.95;;;1.88;;
25917;SDS011;13899;51.174;4.456;2022-08-20T14:05:20;3.30;;;1.60;;
25917;SDS011;13899;51.174;4.456;2022-08-20T14:07:47;3.97;;;1.67;;
25917;SDS011;13899;51.174;4.456;2022-08-20T14:10:16;4.00;;;1.88;;
25917;SDS011;13899;51.174;4.456;2022-08-20T14:12:43;2.72;;;1.38;;
25917;SDS011;13899;51.174;4.456;2022-08-20T14:15:09;3.60;;;1.57;;
25917;SDS011;13899;51.174;4.456;2022-08-20T14:17:36;3.13;;;1.52;;
25917;SDS011;13899;51.174;4.456;2022-08-20T14:22:35;3.33;;;1.00;;
25917;SDS011;13899;51.174;4.456;2022-08-20T14:25:01;4.33;;;1.20;;
25917;SDS011;13899;51.174;4.456;2022-08-20T14:27:28;3.88;;;1.23;;
25917;SDS011;13899;51.174;4.456;2022-08-20T14:29:55;7.25;;;1.40;;
25917;SDS011;13899;51.174;4.456;2022-08-20T14:32:21;3.50;;;1.35;;
25917;SDS011;13899;51.174;4.456;2022-08-20T14:34:46;2.83;;;1.60;;
25917;SDS011;13899;51.174;4.456;2022-08-20T14:39:43;3.05;;;1.25;;
25917;SDS011;13899;51.174;4.456;2022-08-20T14:42:12;4.03;;;1.20;;
25917;SDS011;13899;51.174;4.456;2022-08-20T14:44:38;3.30;;;1.23;;
25917;SDS011;13899;51.174;4.456;2022-08-20T14:49:50;3.90;;;1.40;;
25917;SDS011;13899;51.174;4.456;2022-08-20T14:52:18;3.05;;;1.42;;
25917;SDS011;13899;51.174;4.456;2022-08-20T14:54:45;3.30;;;1.63;;
25917;SDS011;13899;51.174;4.456;2022-08-20T14:57:12;2.63;;;1.25;;
25917;SDS011;13899;51.174;4.456;2022-08-20T14:59:39;2.05;;;1.20;;
25917;SDS011;13899;51.174;4.456;2022-08-20T15:02:06;2.15;;;1.38;;
25917;SDS011;13899;51.174;4.456;2022-08-20T15:04:34;3.20;;;1.83;;
25917;SDS011;13899;51.174;4.456;2022-08-20T15:07:01;3.10;;;1.60;;
25917;SDS011;13899;51.174;4.456;2022-08-20T15:09:29;3.83;;;1.60;;
25917;SDS011;13899;51.174;4.456;2022-08-20T15:11:55;3.00;;;1.70;;
25917;SDS011;13899;51.174;4.456;2022-08-20T15:14:21;3.45;;;1.75;;
25917;SDS011;13899;51.174;4.456;2022-08-20T15:16:47;3.67;;;2.00;;
25917;SDS011;13899;51.174;4.456;2022-08-20T15:19:13;4.13;;;1.63;;
25917;SDS011;13899;51.174;4.456;2022-08-20T15:21:38;3.37;;;1.77;;
25917;SDS011;13899;51.174;4.456;2022-08-20T15:24:05;3.83;;;1.40;;
25917;SDS011;13899;51.174;4.456;2022-08-20T15:26:31;4.87;;;1.70;;
25917;SDS011;13899;51.174;4.456;2022-08-20T15:28:57;3.15;;;1.60;;
25917;SDS011;13899;51.174;4.456;2022-08-20T15:31:23;4.97;;;1.70;;
25917;SDS011;13899;51.174;4.456;2022-08-20T15:33:48;4.90;;;1.67;;
25917;SDS011;13899;51.174;4.456;2022-08-20T15:36:14;3.87;;;1.70;;
25917;SDS011;13899;51.174;4.456;2022-08-20T15:38:40;3.03;;;1.43;;